Weather at Benešov Airport

Public forecast

Using degrees Celsius for public forecast. Weather courtesy of forecast.io.

Closest aviation weather report (METAR) to Benešov Airport

Closest report is Kbely Air Base, 23.2 nm (42.9 km) N. Retrieved 2020/11/29 15:30 UTC (0 seconds ago):

LKKB 291530Z 31006KT 9999 BKN043 03/M00 Q1023 NOSIG

Closest aviation forecast (TAF) to Benešov Airport

Closest forecast is Kbely Air Base, 23.2 nm (42.9 km) N. Retrieved 2020/11/29 12:00 UTC (3 hours ago):

TAF LKKB 291100Z 2912/3012 31008KT 9999 SCT020 BKN035 PROB30 TEMPO 2917/2922 4000 RASN BKN010 BECMG 2923/3001 25005KT TEMPO 3001/3006 7000 NSC BECMG 3004/3006 21006KT